createdAt,value
2016-12-04T00:00:13.162Z,18.46
2016-12-04T00:01:12.143Z,18.47
2016-12-04T00:02:12.156Z,18.46
2016-12-04T00:03:10.849Z,18.46
2016-12-04T00:04:10.130Z,18.48
2016-12-04T00:05:12.974Z,18.47
2016-12-04T00:06:12.298Z,18.47
2016-12-04T00:07:12.767Z,17.94
2016-12-04T00:08:11.919Z,17.88
2016-12-04T00:09:12.718Z,17.84
2016-12-04T00:10:11.822Z,17.84
2016-12-04T00:11:12.792Z,17.85
2016-12-04T00:12:12.782Z,17.90
2016-12-04T00:13:12.521Z,17.83
2016-12-04T00:14:12.622Z,17.83
2016-12-04T00:15:11.608Z,17.83
2016-12-04T00:16:09.954Z,17.82
2016-12-04T00:17:12.693Z,17.82
2016-12-04T00:18:12.595Z,17.85
2016-12-04T00:19:11.725Z,17.82
2016-12-04T00:20:10.734Z,17.82
2016-12-04T00:21:12.305Z,18.35
2016-12-04T00:22:12.766Z,18.40
2016-12-04T00:23:11.986Z,18.42
2016-12-04T00:24:12.975Z,17.91
2016-12-04T00:25:11.976Z,17.86
2016-12-04T00:26:13.801Z,17.83
2016-12-04T00:27:11.904Z,17.83
2016-12-04T00:28:12.612Z,17.87
2016-12-04T00:29:11.686Z,18.34
2016-12-04T00:30:11.755Z,18.37
2016-12-04T00:31:11.792Z,18.39
2016-12-04T00:32:12.320Z,18.42
2016-12-04T00:33:12.544Z,18.42
2016-12-04T00:34:12.264Z,18.42
2016-12-04T00:35:12.406Z,18.42
2016-12-04T00:36:12.417Z,18.43
2016-12-04T00:37:12.916Z,18.42
2016-12-04T00:38:12.070Z,18.41
2016-12-04T00:39:12.811Z,18.44
2016-12-04T00:40:12.519Z,18.44
2016-12-04T00:41:12.546Z,18.42
2016-12-04T00:42:15.172Z,18.45
2016-12-04T00:43:12.215Z,18.45
2016-12-04T00:44:12.675Z,17.96
2016-12-04T00:45:12.290Z,17.87
2016-12-04T00:46:10.835Z,17.83
2016-12-04T00:47:12.160Z,18.32
2016-12-04T00:48:12.210Z,18.37
2016-12-04T00:49:13.915Z,18.37
2016-12-04T00:50:10.127Z,18.38
2016-12-04T00:51:12.885Z,18.38
2016-12-04T00:52:12.852Z,18.41
2016-12-04T00:53:11.927Z,18.06
2016-12-04T00:54:13.012Z,17.87
2016-12-04T00:55:11.868Z,17.83
2016-12-04T00:56:11.875Z,17.82
2016-12-04T00:57:12.541Z,17.79
2016-12-04T00:58:12.611Z,17.80
2016-12-04T00:59:12.138Z,17.82
2016-12-04T01:00:12.231Z,17.80
2016-12-04T01:01:12.765Z,17.79
2016-12-04T01:02:12.906Z,17.78
2016-12-04T01:03:12.637Z,17.77
2016-12-04T01:04:14.867Z,17.77
2016-12-04T01:05:12.713Z,17.75
2016-12-04T01:06:12.449Z,17.80
2016-12-04T01:07:14.998Z,18.28
2016-12-04T01:08:12.030Z,18.33
2016-12-04T01:09:13.166Z,18.35
2016-12-04T01:10:13.743Z,18.02
2016-12-04T01:11:16.198Z,17.85
2016-12-04T01:12:12.132Z,17.81
2016-12-04T01:13:13.598Z,17.78
2016-12-04T01:14:10.992Z,17.77
2016-12-04T01:15:15.339Z,17.78
2016-12-04T01:16:15.244Z,17.77
2016-12-04T01:17:15.298Z,17.76
2016-12-04T01:18:13.937Z,17.75
2016-12-04T01:19:12.534Z,17.77
2016-12-04T01:20:15.726Z,17.75
2016-12-04T01:21:13.359Z,17.77
2016-12-04T01:22:13.725Z,17.77
2016-12-04T01:23:12.844Z,17.76
2016-12-04T01:24:12.279Z,17.75
2016-12-04T01:25:14.586Z,17.80
2016-12-04T01:26:12.967Z,17.74
2016-12-04T01:27:12.505Z,17.78
2016-12-04T01:28:12.881Z,17.78
2016-12-04T01:29:10.716Z,17.74
2016-12-04T01:30:13.706Z,17.74
2016-12-04T01:31:13.288Z,17.74
2016-12-04T01:32:13.118Z,17.74
2016-12-04T01:33:13.732Z,17.74
2016-12-04T01:34:13.278Z,17.74
2016-12-04T01:35:12.775Z,17.74
2016-12-04T01:36:13.197Z,17.74
2016-12-04T01:37:12.835Z,17.74
2016-12-04T01:38:12.449Z,17.73
2016-12-04T01:39:13.333Z,17.73
2016-12-04T01:40:13.292Z,17.76
2016-12-04T01:41:13.537Z,17.75
2016-12-04T01:42:11.610Z,17.73
2016-12-04T01:43:14.101Z,17.89
2016-12-04T01:44:13.238Z,17.79
2016-12-04T01:45:12.370Z,17.76
2016-12-04T01:46:13.842Z,17.76
2016-12-04T01:47:12.355Z,17.77
2016-12-04T01:48:13.809Z,17.73
2016-12-04T01:49:12.555Z,17.77
2016-12-04T01:50:12.227Z,17.73
2016-12-04T01:51:12.939Z,17.71
2016-12-04T01:52:13.776Z,17.71
2016-12-04T01:53:13.505Z,17.72
2016-12-04T01:54:14.659Z,17.72
2016-12-04T01:55:11.673Z,17.72
2016-12-04T01:56:12.327Z,17.76
2016-12-04T01:57:14.066Z,17.71
2016-12-04T01:58:12.767Z,17.72
2016-12-04T01:59:12.329Z,17.72
2016-12-04T02:00:12.711Z,17.72
2016-12-04T02:01:13.017Z,17.73
2016-12-04T02:02:10.160Z,17.73
2016-12-04T02:03:12.788Z,17.72
2016-12-04T02:04:13.502Z,17.72
2016-12-04T02:05:14.554Z,17.74
2016-12-04T02:06:12.871Z,17.72
2016-12-04T02:07:12.598Z,17.72
2016-12-04T02:08:11.571Z,17.72
2016-12-04T02:09:14.595Z,17.72
2016-12-04T02:10:12.229Z,17.72
2016-12-04T02:11:13.434Z,17.70
2016-12-04T02:12:12.484Z,17.71
2016-12-04T02:13:12.782Z,17.70
2016-12-04T02:14:11.898Z,17.71
2016-12-04T02:15:10.780Z,17.69
2016-12-04T02:16:12.049Z,17.70
2016-12-04T02:17:12.681Z,17.71
2016-12-04T02:18:11.637Z,17.70
2016-12-04T02:19:13.501Z,17.69
2016-12-04T02:20:12.819Z,17.71
2016-12-04T02:21:12.477Z,17.72
2016-12-04T02:22:12.491Z,17.71
2016-12-04T02:23:13.569Z,17.69
2016-12-04T02:24:14.501Z,17.69
2016-12-04T02:25:14.216Z,17.68
2016-12-04T02:26:12.883Z,17.70
2016-12-04T02:27:12.598Z,17.70
2016-12-04T02:28:12.323Z,17.70
2016-12-04T02:29:14.309Z,17.74
2016-12-04T02:30:12.898Z,17.76
2016-12-04T02:31:13.507Z,17.74
2016-12-04T02:32:10.934Z,17.68
2016-12-04T02:33:12.262Z,17.69
2016-12-04T02:34:12.768Z,17.74
2016-12-04T02:35:12.466Z,17.75
2016-12-04T02:36:14.070Z,17.72
2016-12-04T02:37:12.069Z,17.73
2016-12-04T02:38:11.294Z,17.73
2016-12-04T02:39:19.240Z,17.72
2016-12-04T02:40:12.963Z,17.74
2016-12-04T02:41:12.659Z,17.76
2016-12-04T02:42:12.259Z,17.73
2016-12-04T02:43:12.904Z,17.74
2016-12-04T02:44:12.019Z,17.74
2016-12-04T02:45:13.817Z,17.73
2016-12-04T02:46:12.503Z,17.77
2016-12-04T02:47:13.451Z,17.77
2016-12-04T02:48:13.146Z,18.26
2016-12-04T02:49:12.239Z,18.32
2016-12-04T02:50:13.345Z,18.10
2016-12-04T02:51:12.303Z,17.82
2016-12-04T02:52:12.206Z,17.77
2016-12-04T02:53:12.812Z,17.75
2016-12-04T02:54:12.482Z,17.75
2016-12-04T02:55:13.247Z,17.74
2016-12-04T02:56:12.719Z,17.77
2016-12-04T02:57:13.174Z,17.74
2016-12-04T02:58:12.642Z,17.82
2016-12-04T02:59:12.565Z,18.25
2016-12-04T03:00:12.855Z,18.30
2016-12-04T03:01:13.303Z,18.31
2016-12-04T03:02:13.736Z,18.32
2016-12-04T03:03:13.334Z,18.33
2016-12-04T03:04:10.417Z,18.32
2016-12-04T03:05:13.446Z,18.34
2016-12-04T03:06:13.377Z,18.32
2016-12-04T03:07:12.882Z,18.03
2016-12-04T03:08:12.793Z,17.79
2016-12-04T03:09:11.860Z,17.75
2016-12-04T03:10:13.275Z,17.74
2016-12-04T03:11:13.141Z,17.72
2016-12-04T03:12:13.046Z,17.73
2016-12-04T03:13:12.111Z,17.72
2016-12-04T03:14:12.741Z,17.71
2016-12-04T03:15:11.837Z,17.69
2016-12-04T03:16:12.631Z,17.69
2016-12-04T03:17:12.686Z,17.68
2016-12-04T03:18:11.881Z,17.68
2016-12-04T03:19:11.934Z,17.68
2016-12-04T03:20:12.584Z,17.68
2016-12-04T03:21:12.412Z,17.70
2016-12-04T03:22:12.794Z,17.74
2016-12-04T03:23:12.072Z,17.68
2016-12-04T03:24:12.996Z,17.69
2016-12-04T03:25:10.630Z,17.68
2016-12-04T03:26:13.590Z,17.83
2016-12-04T03:27:15.205Z,17.71
2016-12-04T03:28:13.139Z,17.68
2016-12-04T03:29:12.869Z,17.69
2016-12-04T03:30:13.583Z,17.69
2016-12-04T03:31:12.236Z,17.67
2016-12-04T03:32:14.973Z,17.67
2016-12-04T03:33:13.389Z,17.68
2016-12-04T03:34:13.055Z,17.66
2016-12-04T03:35:12.790Z,17.68
2016-12-04T03:36:12.544Z,17.67
2016-12-04T03:37:14.559Z,17.67
2016-12-04T03:38:12.951Z,17.70
2016-12-04T03:39:12.937Z,17.65
2016-12-04T03:40:12.624Z,17.65
2016-12-04T03:41:11.761Z,17.65
2016-12-04T03:42:11.914Z,17.65
2016-12-04T03:43:13.669Z,17.66
2016-12-04T03:44:13.789Z,17.65
2016-12-04T03:45:13.461Z,17.65
2016-12-04T03:46:12.450Z,17.66
2016-12-04T03:47:13.263Z,17.66
2016-12-04T03:48:12.174Z,17.64
2016-12-04T03:49:12.871Z,17.65
2016-12-04T03:50:11.941Z,17.65
2016-12-04T03:51:12.649Z,17.66
2016-12-04T03:52:12.265Z,17.68
2016-12-04T03:53:14.044Z,17.66
2016-12-04T03:54:12.878Z,17.65
2016-12-04T03:55:11.919Z,17.65
2016-12-04T03:56:11.910Z,17.65
2016-12-04T03:57:13.002Z,17.65
2016-12-04T03:58:13.904Z,17.66
2016-12-04T03:59:12.535Z,17.67
2016-12-04T04:00:12.735Z,17.64
2016-12-04T04:01:12.261Z,17.69
2016-12-04T04:02:14.850Z,17.64
2016-12-04T04:03:11.959Z,17.65
2016-12-04T04:04:12.522Z,17.67
2016-12-04T04:05:12.795Z,17.66
2016-12-04T04:06:12.471Z,17.72
2016-12-04T04:07:13.232Z,17.65
2016-12-04T04:08:12.661Z,17.67
2016-12-04T04:09:12.106Z,17.64
2016-12-04T04:10:10.903Z,17.63
2016-12-04T04:11:12.203Z,17.64
2016-12-04T04:12:12.321Z,17.63
2016-12-04T04:13:13.844Z,17.63
2016-12-04T04:14:19.802Z,17.63
2016-12-04T04:15:12.627Z,18.15
2016-12-04T04:16:11.909Z,18.21
2016-12-04T04:17:12.021Z,18.22
2016-12-04T04:18:12.703Z,18.26
2016-12-04T04:19:11.649Z,18.24
2016-12-04T04:20:10.508Z,18.24
2016-12-04T04:21:13.472Z,18.25
2016-12-04T04:22:13.331Z,18.24
2016-12-04T04:23:13.301Z,18.26
2016-12-04T04:24:14.617Z,18.26
2016-12-04T04:25:10.671Z,18.25
2016-12-04T04:26:12.370Z,17.88
2016-12-04T04:27:12.277Z,17.71
2016-12-04T04:28:12.715Z,17.71
2016-12-04T04:29:12.364Z,17.68
2016-12-04T04:30:11.101Z,17.64
2016-12-04T04:31:12.292Z,17.64
2016-12-04T04:32:14.036Z,17.62
2016-12-04T04:33:12.968Z,17.63
2016-12-04T04:34:12.621Z,17.65
2016-12-04T04:35:10.683Z,17.62
2016-12-04T04:36:12.487Z,18.07
2016-12-04T04:37:14.141Z,17.66
2016-12-04T04:38:13.685Z,17.62
2016-12-04T04:39:13.642Z,17.62
2016-12-04T04:40:13.193Z,17.63
2016-12-04T04:41:13.752Z,17.61
2016-12-04T04:42:12.572Z,17.62
2016-12-04T04:43:12.404Z,17.63
2016-12-04T04:44:15.041Z,17.60
2016-12-04T04:45:12.001Z,17.61
2016-12-04T04:46:12.583Z,17.60
2016-12-04T04:47:11.541Z,17.61
2016-12-04T04:48:13.410Z,17.61
2016-12-04T04:49:13.257Z,17.60
2016-12-04T04:50:12.213Z,17.60
2016-12-04T04:51:12.498Z,17.65
2016-12-04T04:52:12.922Z,17.64
2016-12-04T04:53:10.942Z,17.61
2016-12-04T04:54:12.557Z,17.60
2016-12-04T04:55:12.483Z,17.68
2016-12-04T04:56:13.001Z,17.60
2016-12-04T04:57:12.721Z,17.62
2016-12-04T04:58:12.192Z,17.65
2016-12-04T04:59:12.232Z,17.60
2016-12-04T05:00:12.865Z,17.61
2016-12-04T05:01:12.503Z,17.60
2016-12-04T05:02:13.133Z,17.60
2016-12-04T05:03:13.009Z,17.60
2016-12-04T05:04:12.170Z,17.60
2016-12-04T05:05:12.312Z,17.60
2016-12-04T05:06:13.049Z,17.59
2016-12-04T05:07:13.774Z,17.59
2016-12-04T05:08:11.908Z,17.59
2016-12-04T05:09:12.896Z,17.60
2016-12-04T05:10:12.787Z,17.60
2016-12-04T05:11:12.291Z,17.63
2016-12-04T05:12:11.875Z,17.60
2016-12-04T05:13:13.662Z,17.58
2016-12-04T05:14:12.247Z,17.63
2016-12-04T05:15:12.358Z,17.59
2016-12-04T05:16:13.377Z,17.59
2016-12-04T05:17:13.118Z,17.58
2016-12-04T05:18:12.166Z,17.59
2016-12-04T05:19:13.749Z,17.59
2016-12-04T05:20:13.013Z,17.63
2016-12-04T05:21:12.752Z,17.59
2016-12-04T05:22:13.611Z,17.59
2016-12-04T05:23:12.961Z,17.59
2016-12-04T05:24:15.246Z,17.60
2016-12-04T05:25:14.739Z,17.59
2016-12-04T05:26:12.710Z,17.61
2016-12-04T05:27:11.842Z,17.63
2016-12-04T05:28:11.882Z,17.63
2016-12-04T05:29:12.519Z,17.65
2016-12-04T05:30:12.647Z,17.64
2016-12-04T05:31:11.295Z,17.63
2016-12-04T05:32:13.289Z,17.63
2016-12-04T05:33:12.853Z,17.61
2016-12-04T05:34:11.763Z,17.62
2016-12-04T05:35:13.200Z,17.59
2016-12-04T05:36:13.801Z,17.56
2016-12-04T05:37:12.879Z,17.58
2016-12-04T05:38:11.973Z,17.58
2016-12-04T05:39:12.458Z,17.60
2016-12-04T05:40:13.501Z,17.61
2016-12-04T05:41:12.541Z,17.60
2016-12-04T05:42:13.224Z,17.60
2016-12-04T05:43:10.312Z,17.59
2016-12-04T05:44:12.108Z,18.10
2016-12-04T05:45:13.072Z,18.16
2016-12-04T05:46:12.700Z,17.66
2016-12-04T05:47:11.899Z,17.61
2016-12-04T05:48:12.726Z,17.60
2016-12-04T05:49:11.822Z,17.60
2016-12-04T05:50:12.476Z,17.64
2016-12-04T05:51:13.000Z,17.59
2016-12-04T05:52:10.794Z,17.58
2016-12-04T05:53:12.208Z,18.12
2016-12-04T05:54:12.559Z,18.17
2016-12-04T05:55:12.345Z,18.19
2016-12-04T05:56:11.106Z,18.19
2016-12-04T05:57:13.827Z,17.65
2016-12-04T05:58:12.748Z,17.61
2016-12-04T05:59:10.834Z,17.59
2016-12-04T06:00:11.911Z,17.59
2016-12-04T06:01:12.547Z,17.61
2016-12-04T06:02:13.161Z,17.57
2016-12-04T06:03:12.294Z,17.56
2016-12-04T06:04:13.312Z,17.55
2016-12-04T06:05:12.218Z,17.55
2016-12-04T06:06:12.217Z,17.56
2016-12-04T06:07:10.914Z,17.55
2016-12-04T06:08:13.356Z,17.55
2016-12-04T06:09:14.680Z,17.54
2016-12-04T06:10:12.340Z,17.62
2016-12-04T06:11:12.347Z,18.06
2016-12-04T06:12:12.799Z,18.12
2016-12-04T06:13:13.394Z,18.13
2016-12-04T06:14:12.187Z,17.63
2016-12-04T06:15:13.098Z,17.59
2016-12-04T06:16:12.041Z,17.59
2016-12-04T06:17:12.533Z,17.66
2016-12-04T06:18:13.298Z,17.60
2016-12-04T06:19:18.260Z,17.63
2016-12-04T06:20:12.360Z,17.61
2016-12-04T06:21:13.257Z,17.62
2016-12-04T06:22:12.804Z,17.65
2016-12-04T06:23:12.563Z,17.64
2016-12-04T06:24:11.742Z,17.66
2016-12-04T06:25:13.203Z,17.66
2016-12-04T06:26:12.949Z,17.68
2016-12-04T06:27:12.862Z,17.70
2016-12-04T06:28:12.418Z,17.71
2016-12-04T06:29:13.364Z,17.71
2016-12-04T06:30:13.092Z,17.72
2016-12-04T06:31:12.162Z,17.76
2016-12-04T06:32:12.165Z,18.28
2016-12-04T06:33:13.200Z,18.33
2016-12-04T06:34:12.719Z,18.03
2016-12-04T06:35:13.036Z,17.84
2016-12-04T06:36:10.746Z,17.78
2016-12-04T06:37:13.250Z,17.77
2016-12-04T06:38:10.293Z,17.78
2016-12-04T06:39:14.229Z,17.79
2016-12-04T06:40:12.969Z,17.78
2016-12-04T06:41:13.873Z,17.80
2016-12-04T06:42:12.521Z,17.87
2016-12-04T06:43:13.062Z,17.87
2016-12-04T06:44:12.886Z,18.40
2016-12-04T06:45:11.944Z,18.47
2016-12-04T06:46:12.641Z,18.41
2016-12-04T06:47:11.677Z,18.04
2016-12-04T06:48:13.498Z,17.75
2016-12-04T06:49:12.872Z,17.64
2016-12-04T06:50:09.032Z,15.57
2016-12-04T06:51:12.532Z,14.55
2016-12-04T06:52:13.309Z,13.79
2016-12-04T06:53:13.167Z,12.76
2016-12-04T06:54:12.894Z,12.58
2016-12-04T06:55:12.226Z,12.92
2016-12-04T06:56:10.882Z,12.33
2016-12-04T06:57:13.867Z,12.14
2016-12-04T06:58:11.871Z,12.93
2016-12-04T06:59:11.901Z,13.79
2016-12-04T07:00:12.371Z,14.53
2016-12-04T07:01:14.012Z,15.13
2016-12-04T07:02:12.156Z,15.20
2016-12-04T07:03:12.825Z,15.34
2016-12-04T07:04:12.545Z,15.59
2016-12-04T07:05:17.926Z,15.80
2016-12-04T07:06:12.099Z,15.95
2016-12-04T07:07:12.152Z,16.10
2016-12-04T07:08:13.778Z,16.25
2016-12-04T07:09:12.387Z,16.45
2016-12-04T07:10:13.353Z,16.48
2016-12-04T07:11:12.329Z,16.57
2016-12-04T07:12:10.339Z,16.65
2016-12-04T07:13:13.404Z,16.74
2016-12-04T07:14:12.399Z,16.82
2016-12-04T07:15:14.129Z,16.90
2016-12-04T07:16:12.755Z,16.96
2016-12-04T07:17:12.680Z,17.04
2016-12-04T07:18:12.414Z,17.08
2016-12-04T07:19:10.380Z,17.12
2016-12-04T07:20:12.528Z,17.17
2016-12-04T07:21:12.497Z,17.22
2016-12-04T07:22:12.033Z,17.29
2016-12-04T07:23:13.380Z,17.30
2016-12-04T07:24:12.530Z,17.35
2016-12-04T07:25:13.612Z,17.41
2016-12-04T07:26:11.817Z,17.45
2016-12-04T07:27:10.909Z,17.47
2016-12-04T07:28:14.603Z,17.50
2016-12-04T07:29:12.501Z,17.57
2016-12-04T07:30:12.948Z,17.57
2016-12-04T07:31:11.938Z,17.57
2016-12-04T07:32:12.551Z,17.59
2016-12-04T07:33:12.041Z,17.64
2016-12-04T07:34:12.128Z,17.63
2016-12-04T07:35:12.139Z,17.66
2016-12-04T07:36:12.852Z,17.88
2016-12-04T07:37:12.769Z,18.28
2016-12-04T07:38:12.394Z,18.34
2016-12-04T07:39:13.410Z,18.37
2016-12-04T07:40:12.612Z,18.40
2016-12-04T07:41:12.232Z,18.41
2016-12-04T07:42:12.300Z,18.43
2016-12-04T07:43:14.204Z,18.43
2016-12-04T07:44:12.702Z,18.45
2016-12-04T07:45:12.483Z,18.46
2016-12-04T07:46:12.789Z,18.24
2016-12-04T07:47:12.628Z,17.88
2016-12-04T07:48:11.712Z,17.82
2016-12-04T07:49:12.551Z,17.83
2016-12-04T07:50:12.586Z,17.74
2016-12-04T07:51:11.673Z,17.72
2016-12-04T07:52:11.753Z,17.72
2016-12-04T07:53:13.417Z,17.71
2016-12-04T07:54:10.441Z,17.71
2016-12-04T07:55:13.286Z,17.73
2016-12-04T07:56:12.677Z,17.64
2016-12-04T07:57:12.734Z,17.62
2016-12-04T07:58:12.449Z,17.64
2016-12-04T07:59:12.976Z,17.64
2016-12-04T08:00:12.649Z,17.67
2016-12-04T08:01:12.371Z,17.65
2016-12-04T08:02:13.991Z,17.60
2016-12-04T08:03:12.133Z,17.59
2016-12-04T08:04:12.094Z,17.59
2016-12-04T08:05:10.813Z,17.58
2016-12-04T08:06:12.632Z,18.12
2016-12-04T08:07:12.190Z,17.85
2016-12-04T08:08:11.015Z,17.63
2016-12-04T08:09:10.906Z,18.13
2016-12-04T08:10:11.999Z,17.65
2016-12-04T08:11:12.699Z,17.60
2016-12-04T08:12:12.322Z,17.59
2016-12-04T08:13:12.432Z,17.58
2016-12-04T08:14:13.157Z,17.57
2016-12-04T08:15:12.104Z,17.57
2016-12-04T08:16:12.201Z,17.56
2016-12-04T08:17:12.374Z,17.55
2016-12-04T08:18:12.184Z,17.54
2016-12-04T08:19:12.334Z,17.54
2016-12-04T08:20:13.225Z,17.54
2016-12-04T08:21:14.703Z,17.53
2016-12-04T08:22:12.629Z,17.53
2016-12-04T08:23:11.738Z,17.52
2016-12-04T08:24:12.650Z,17.51
2016-12-04T08:25:11.742Z,17.52
2016-12-04T08:26:14.291Z,17.51
2016-12-04T08:27:12.180Z,17.52
2016-12-04T08:28:13.540Z,17.52
2016-12-04T08:29:12.504Z,17.51
2016-12-04T08:30:13.198Z,17.51
2016-12-04T08:31:12.483Z,17.50
2016-12-04T08:32:14.670Z,17.51
2016-12-04T08:33:11.778Z,17.51
2016-12-04T08:34:11.825Z,17.50
2016-12-04T08:35:12.519Z,17.54
2016-12-04T08:36:12.640Z,17.50
2016-12-04T08:37:12.222Z,17.49
2016-12-04T08:38:12.503Z,17.52
2016-12-04T08:39:13.036Z,17.49
2016-12-04T08:40:12.473Z,17.55
2016-12-04T08:41:14.146Z,17.49
2016-12-04T08:42:10.664Z,17.49
2016-12-04T08:43:12.572Z,17.49
2016-12-04T08:44:13.945Z,17.48
2016-12-04T08:45:12.410Z,17.52
2016-12-04T08:46:13.730Z,17.46
2016-12-04T08:47:12.291Z,17.51
2016-12-04T08:48:14.157Z,17.45
2016-12-04T08:49:13.833Z,17.45
2016-12-04T08:50:12.491Z,17.46
2016-12-04T08:51:12.806Z,17.50
2016-12-04T08:52:12.391Z,17.46
2016-12-04T08:53:13.175Z,17.43
2016-12-04T08:54:11.147Z,17.43
2016-12-04T08:55:12.865Z,17.44
2016-12-04T08:56:12.498Z,17.43
2016-12-04T08:57:13.312Z,17.43
2016-12-04T08:58:12.503Z,17.43
2016-12-04T08:59:13.004Z,17.43
2016-12-04T09:00:10.885Z,17.42
2016-12-04T09:01:13.444Z,17.43
2016-12-04T09:02:12.786Z,17.49
2016-12-04T09:03:12.387Z,17.41
2016-12-04T09:04:10.121Z,17.40
2016-12-04T09:05:13.237Z,17.59
2016-12-04T09:06:12.886Z,17.46
2016-12-04T09:07:12.077Z,17.96
2016-12-04T09:08:13.630Z,18.02
2016-12-04T09:09:11.585Z,18.01
2016-12-04T09:10:10.049Z,18.03
2016-12-04T09:11:12.754Z,18.03
2016-12-04T09:12:11.932Z,17.50
2016-12-04T09:13:12.071Z,17.46
2016-12-04T09:14:11.105Z,17.42
2016-12-04T09:15:12.174Z,17.41
2016-12-04T09:16:13.709Z,17.40
2016-12-04T09:17:12.701Z,17.39
2016-12-04T09:18:11.863Z,17.39
2016-12-04T09:19:11.845Z,17.41
2016-12-04T09:20:12.892Z,17.47
2016-12-04T09:21:13.649Z,17.40
2016-12-04T09:22:11.611Z,17.38
2016-12-04T09:23:11.704Z,17.40
2016-12-04T09:24:11.815Z,17.38
2016-12-04T09:25:11.890Z,17.37
2016-12-04T09:26:12.666Z,17.39
2016-12-04T09:27:12.384Z,17.39
2016-12-04T09:28:13.976Z,17.38
2016-12-04T09:29:12.706Z,17.37
2016-12-04T09:30:13.476Z,17.36
2016-12-04T09:31:13.007Z,17.41
2016-12-04T09:32:12.705Z,17.36
2016-12-04T09:33:12.275Z,17.38
2016-12-04T09:34:12.756Z,17.36
2016-12-04T09:35:12.448Z,17.39
2016-12-04T09:36:12.666Z,17.36
2016-12-04T09:37:12.163Z,17.44
2016-12-04T09:38:12.646Z,17.36
2016-12-04T09:39:12.725Z,17.34
2016-12-04T09:40:11.746Z,17.35
2016-12-04T09:41:11.816Z,17.35
2016-12-04T09:42:13.545Z,17.34
2016-12-04T09:43:14.290Z,17.35
2016-12-04T09:44:12.206Z,17.36
2016-12-04T09:45:12.796Z,17.36
2016-12-04T09:46:12.790Z,17.36
2016-12-04T09:47:12.560Z,17.37
2016-12-04T09:48:11.672Z,17.36
2016-12-04T09:49:12.194Z,17.35
2016-12-04T09:50:11.167Z,17.35
2016-12-04T09:51:12.872Z,17.35
2016-12-04T09:52:12.007Z,17.35
2016-12-04T09:53:13.785Z,17.35
2016-12-04T09:54:11.726Z,17.35
2016-12-04T09:55:11.635Z,17.34
2016-12-04T09:56:12.402Z,17.34
2016-12-04T09:57:12.467Z,17.34
2016-12-04T09:58:14.247Z,17.34
2016-12-04T09:59:13.122Z,17.35
2016-12-04T10:00:12.175Z,17.34
2016-12-04T10:01:12.642Z,17.33
2016-12-04T10:02:14.300Z,17.33
2016-12-04T10:03:12.735Z,17.37
2016-12-04T10:04:12.338Z,17.36
2016-12-04T10:05:12.587Z,17.37
2016-12-04T10:06:11.865Z,17.33
2016-12-04T10:07:11.852Z,17.34
2016-12-04T10:08:12.614Z,17.34
2016-12-04T10:09:12.568Z,17.34
2016-12-04T10:10:12.638Z,17.36
2016-12-04T10:11:12.258Z,17.34
2016-12-04T10:12:12.340Z,17.33
2016-12-04T10:13:13.967Z,17.33
2016-12-04T10:14:12.669Z,17.35
2016-12-04T10:15:12.167Z,17.37
2016-12-04T10:16:12.556Z,17.37
2016-12-04T10:17:11.648Z,17.33
2016-12-04T10:18:10.707Z,17.32
2016-12-04T10:19:11.737Z,17.86
2016-12-04T10:20:11.969Z,17.54
2016-12-04T10:21:09.676Z,17.38
2016-12-04T10:22:11.776Z,17.36
2016-12-04T10:23:13.395Z,17.34
2016-12-04T10:24:12.858Z,17.37
2016-12-04T10:25:12.375Z,17.39
2016-12-04T10:26:12.837Z,17.39
2016-12-04T10:27:11.704Z,17.33
2016-12-04T10:28:13.466Z,17.34
2016-12-04T10:29:12.400Z,17.33
2016-12-04T10:30:12.388Z,17.34
2016-12-04T10:31:11.311Z,17.33
2016-12-04T10:32:13.110Z,17.34
2016-12-04T10:33:12.699Z,17.34
2016-12-04T10:34:11.846Z,17.85
2016-12-04T10:35:10.901Z,17.89
2016-12-04T10:36:13.645Z,17.38
2016-12-04T10:37:13.527Z,17.34
2016-12-04T10:38:11.226Z,17.33
2016-12-04T10:39:14.409Z,17.33
2016-12-04T10:40:11.791Z,17.34
2016-12-04T10:41:12.359Z,17.32
2016-12-04T10:42:12.209Z,17.35
2016-12-04T10:43:13.006Z,17.31
2016-12-04T10:44:12.559Z,17.31
2016-12-04T10:45:11.388Z,17.31
2016-12-04T10:46:12.959Z,17.36
2016-12-04T10:47:12.067Z,17.33
2016-12-04T10:48:12.687Z,17.32
2016-12-04T10:49:11.840Z,17.31
2016-12-04T10:50:11.816Z,17.32
2016-12-04T10:51:12.451Z,17.33
2016-12-04T10:52:13.140Z,17.31
2016-12-04T10:53:19.450Z,17.31
2016-12-04T10:54:13.093Z,17.34
2016-12-04T10:55:10.994Z,17.83
2016-12-04T10:56:12.577Z,17.42
2016-12-04T10:57:14.209Z,17.34
2016-12-04T10:58:13.008Z,17.33
2016-12-04T10:59:12.830Z,17.32
2016-12-04T11:00:11.859Z,17.32
2016-12-04T11:01:11.919Z,17.31
2016-12-04T11:02:12.008Z,17.31
2016-12-04T11:03:12.620Z,17.35
2016-12-04T11:04:12.277Z,17.37
2016-12-04T11:05:12.324Z,17.30
2016-12-04T11:06:12.889Z,17.29
2016-12-04T11:07:13.649Z,17.31
2016-12-04T11:08:11.732Z,17.31
2016-12-04T11:09:12.465Z,17.34
2016-12-04T11:10:13.109Z,17.30
2016-12-04T11:11:12.518Z,17.33
2016-12-04T11:12:13.040Z,17.29
2016-12-04T11:13:12.040Z,17.29
2016-12-04T11:14:12.649Z,17.36
2016-12-04T11:15:12.326Z,17.32
2016-12-04T11:16:11.206Z,17.29
2016-12-04T11:17:13.009Z,17.31
2016-12-04T11:18:10.148Z,17.30
2016-12-04T11:19:11.942Z,17.31
2016-12-04T11:20:12.469Z,17.37
2016-12-04T11:21:12.457Z,17.31
2016-12-04T11:22:11.504Z,17.30
2016-12-04T11:23:14.117Z,17.29
2016-12-04T11:24:12.756Z,17.30
2016-12-04T11:25:11.821Z,17.30
2016-12-04T11:26:11.829Z,17.30
2016-12-04T11:27:12.674Z,17.38
2016-12-04T11:28:13.364Z,17.82
2016-12-04T11:29:12.860Z,17.89
2016-12-04T11:30:11.802Z,17.88
2016-12-04T11:31:11.734Z,17.38
2016-12-04T11:32:11.842Z,17.33
2016-12-04T11:33:11.779Z,17.32
2016-12-04T11:34:12.348Z,17.30
2016-12-04T11:35:12.458Z,17.29
2016-12-04T11:36:12.679Z,17.29
2016-12-04T11:37:11.770Z,17.30
2016-12-04T11:38:13.287Z,17.28
2016-12-04T11:39:12.280Z,17.29
2016-12-04T11:40:12.690Z,17.33
2016-12-04T11:41:11.787Z,17.30
2016-12-04T11:42:11.769Z,17.30
2016-12-04T11:43:13.729Z,17.29
2016-12-04T11:44:11.627Z,17.28
2016-12-04T11:45:13.198Z,17.28
2016-12-04T11:46:12.141Z,17.28
2016-12-04T11:47:28.523Z,17.28
2016-12-04T11:48:12.949Z,17.30
2016-12-04T11:49:12.008Z,17.28
2016-12-04T11:50:12.030Z,17.28
2016-12-04T11:51:12.911Z,17.27
2016-12-04T11:52:12.368Z,17.29
2016-12-04T11:53:13.254Z,17.27
2016-12-04T11:54:12.488Z,17.31
2016-12-04T11:55:13.086Z,17.27
2016-12-04T11:56:12.572Z,17.27
2016-12-04T11:57:09.172Z,17.26
2016-12-04T11:58:12.106Z,17.26
2016-12-04T11:59:12.528Z,17.30
2016-12-04T12:00:13.169Z,17.78
2016-12-04T12:01:09.398Z,17.83
2016-12-04T12:02:12.760Z,17.38
2016-12-04T12:03:11.871Z,17.30
2016-12-04T12:04:13.449Z,17.29
2016-12-04T12:05:13.229Z,17.29
2016-12-04T12:06:13.708Z,17.28
2016-12-04T12:07:12.446Z,17.29
2016-12-04T12:08:14.628Z,17.27
2016-12-04T12:09:12.594Z,17.28
2016-12-04T12:10:11.765Z,17.28
2016-12-04T12:11:11.923Z,17.29
2016-12-04T12:12:12.584Z,17.28
2016-12-04T12:13:12.059Z,17.33
2016-12-04T12:14:12.805Z,17.30
2016-12-04T12:15:11.756Z,17.29
2016-12-04T12:16:11.851Z,17.29
2016-12-04T12:17:11.894Z,17.28
2016-12-04T12:18:12.023Z,17.27
2016-12-04T12:19:12.143Z,17.26
2016-12-04T12:20:12.934Z,17.30
2016-12-04T12:21:12.391Z,17.32
2016-12-04T12:22:13.900Z,17.26
2016-12-04T12:23:11.949Z,17.26
2016-12-04T12:24:12.189Z,17.26
2016-12-04T12:25:13.050Z,17.26
2016-12-04T12:26:14.800Z,17.26
2016-12-04T12:27:13.302Z,17.25
2016-12-04T12:28:12.949Z,17.26
2016-12-04T12:29:12.760Z,17.26
2016-12-04T12:30:12.343Z,17.31
2016-12-04T12:31:12.783Z,17.30
2016-12-04T12:32:12.376Z,17.26
2016-12-04T12:33:12.966Z,17.26
2016-12-04T12:34:13.595Z,17.25
2016-12-04T12:35:13.359Z,17.25
2016-12-04T12:36:12.957Z,17.25
2016-12-04T12:37:12.327Z,17.29
2016-12-04T12:38:14.195Z,17.25
2016-12-04T12:39:12.458Z,17.29
2016-12-04T12:40:10.446Z,17.24
2016-12-04T12:41:12.067Z,17.27
2016-12-04T12:42:12.177Z,17.25
2016-12-04T12:43:12.109Z,17.24
2016-12-04T12:44:10.225Z,17.23
2016-12-04T12:45:12.379Z,17.25
2016-12-04T12:46:13.108Z,17.24
2016-12-04T12:47:12.200Z,17.24
2016-12-04T12:48:12.194Z,17.24
2016-12-04T12:49:12.697Z,17.24
2016-12-04T12:50:11.867Z,17.25
2016-12-04T12:51:12.677Z,17.25
2016-12-04T12:52:12.326Z,17.26